KPOB

Pope AAF Airport

Fayetteville, North Carolina, USA
METAR KPOB 182156Z AUTO 23012KT 10SM FEW065 31/20 A2999 RMK AO2 LTG DSNT S SLP156 T03130202 $
Observed Flight Rules
Jun-18 @ 21:56 UTC (51 minutes ago) Visual Flight Rules
Wind Visibility Clouds
230° at 12 knots 10 miles
  • Few at 6,500' AGL
Temperatures Readings
Current 31°C / 88°F
Dewpoint 20°C / 68°F
Humidity 52%
Altimeter 29.99" Hg
Pressure 1015.6 hPa
Elevation 66
METAR KPOB 182156Z AUTO 23012KT 10SM FEW065 31/20 A2999 RMK AO2 LTG DSNT S SLP156 T03130202 $
Observed Flight Rules
Jun-18 @ 21:56 UTC
(51 minutes ago)
VFR
Wind Visibility
230° at 12 knots 10 miles
Clouds
  • Few at 6,500' AGL
Temperature Dewpoint
31°C / 88°F 20°C / 68°F
Humidity Altimeter Pressure
52% 29.99" Hg 1015.6 hPa